Terminal Aerodrome Forecast
Issued by NWS

Home | Current Version | Previous Version | Text Only | Print | Product List | Glossary On
Versions: 1 2 3 4 5 6 7 8 9 10 11 12 13 14 15 16 17 18 19 20 21 22 23 24 25 26 27 28 29 30 31 32 33 34 35 36 37 38 39 40 41 42 43 44 45 46 47 48 49 50
000
FTUS45 KBOU 260101 AAB
TAFBJC
TAF AMD
KBJC 260101Z 2601/2624 02015KT P6SM VCSH SCT035 BKN040 OVC050
      TEMPO 2601/2603 3SM -RA BKN024 OVC035
     FM260300 02013KT 4SM -RASN BKN028 OVC040
     FM260600 34007KT P6SM SCT040 BKN070
     FM261100 VRB04KT P6SM VCFG FEW005 SCT200
     FM261500 16006KT P6SM FEW070 SCT200=

USA.gov is the U.S. government's official web portal to all federal, state and local government web resources and services.